Main page
METAR-TAF:

METAR-TAF

Airports :

Fairfield Municipal Airport

Fairfield, Illinois, United States

latitude: 38-22-43N, longitude: 088-24-46W, elevation: 436 ft

Current weather observation

The report was made 26 minutes ago, at 11:35 UTC
Wind 6 mph from the East/Northeast
Temperature 63°F
Humidity 94%
Pressure 29.93 in. Hg
Visibility: 10 miles
Scattered clouds at a height of 4200 ft
Scattered clouds at a height of 7000 ft
Broken clouds at a height of 12000 ft

METAR: KFWC 231135Z AUTO 07005KT 10SM SCT042 SCT070 BKN120 17/16 A2993 RMK AO2 LTG DSNT N SE AND W T01740155

Time: 07:01 (12:01 UTC)


TAF: missing

Weather observations and forecasts of more than 4000 airports (METAR and TAF reports).

The available stations are represented by yellow and red dots on the map.

Hover mouse over dot to see the name of the station.

Then click to see weather observations and forecasts.

To change the map : click on the green buttons with a black cross to zoom in, on the green button with a dash to zoom out, or on the green arrows for adjacent maps.


METAR-TAF: